Time;durP1;ratioP1;P1;durP2;ratioP2;P2;SDS_P1;SDS_P2;PMS_P1;PMS_P2;Temp;Humidity;BMP_temperature;BMP_pressure;BME280_temperature;BME280_humidity;BME280_pressure;Samples;Min_cycle;Max_cycle;Signal;HPM_P1;HPM_P2
2023/10/06 00:01:40;;;;;;;8.25;3.20;;;;;;;10.60;71.03;100552.22;4953439;28;20204;-79
2023/10/06 00:04:07;;;;;;;4.10;3.22;;;;;;;10.61;71.00;100553.91;4957739;28;20693;-77
2023/10/06 00:06:41;;;;;;;5.43;2.97;;;;;;;10.58;70.99;100551.44;4946967;28;20208;-80
2023/10/06 00:09:09;;;;;;;3.53;3.20;;;;;;;10.54;70.96;100549.91;4955823;28;20254;-78
2023/10/06 00:11:37;;;;;;;4.35;3.00;;;;;;;10.52;71.16;100554.38;4955428;28;20196;-80
2023/10/06 00:14:07;;;;;;;5.22;3.25;;;;;;;10.54;71.07;100547.28;4957492;28;20224;-78
2023/10/06 00:16:39;;;;;;;4.32;3.33;;;;;;;10.57;70.83;100555.00;4957806;28;20220;-78
2023/10/06 00:19:36;;;;;;;3.13;2.70;;;;;;;10.56;70.65;100546.28;4954563;28;20287;-78
2023/10/06 00:24:50;;;;;;;3.78;2.67;;;;;;;10.36;70.78;100562.97;4955087;28;20605;-77
2023/10/06 00:27:23;;;;;;;2.80;2.35;;;;;;;10.24;70.89;100557.44;4953495;28;20283;-77
2023/10/06 00:29:54;;;;;;;2.33;2.13;;;;;;;10.13;71.20;100560.56;4935717;28;20307;-78
2023/10/06 00:32:22;;;;;;;2.45;1.65;;;;;;;10.01;71.35;100569.00;4949933;28;20220;-77
2023/10/06 00:34:49;;;;;;;2.83;1.60;;;;;;;9.88;71.45;100566.94;4954484;28;20197;-79
2023/10/06 00:37:16;;;;;;;3.70;2.42;;;;;;;9.79;71.78;100569.97;4972453;28;20606;-78
2023/10/06 00:39:43;;;;;;;2.58;2.08;;;;;;;9.72;71.96;100571.16;4974675;28;21183;-77
2023/10/06 00:42:12;;;;;;;2.92;2.10;;;;;;;9.67;71.80;100570.53;4944055;28;20232;-79
2023/10/06 00:44:39;;;;;;;4.63;2.70;;;;;;;9.63;71.99;100571.56;4943847;28;20209;-79
2023/10/06 00:47:06;;;;;;;4.18;2.70;;;;;;;9.62;71.88;100570.72;4953752;28;20200;-78
2023/10/06 00:49:35;;;;;;;3.63;2.58;;;;;;;9.68;71.94;100575.69;4945226;28;20224;-78
2023/10/06 00:52:01;;;;;;;3.60;2.50;;;;;;;9.75;71.55;100571.03;4954633;28;20998;-78
2023/10/06 00:54:27;;;;;;;5.43;2.43;;;;;;;9.78;71.59;100565.66;4943580;28;20217;-79
2023/10/06 00:56:57;;;;;;;5.53;3.20;;;;;;;9.83;71.23;100573.28;4955025;28;20490;-77
2023/10/06 00:59:24;;;;;;;3.65;2.70;;;;;;;9.86;71.16;100568.78;4945103;28;20487;-78
2023/10/06 01:01:50;;;;;;;5.50;3.72;;;;;;;9.91;71.17;100566.81;4945187;28;20205;-77
2023/10/06 01:04:16;;;;;;;6.25;2.78;;;;;;;9.96;70.96;100569.19;4944933;28;20193;-79
2023/10/06 01:06:42;;;;;;;6.65;4.03;;;;;;;10.01;70.85;100576.88;4954798;28;20796;-77
2023/10/06 01:11:50;;;;;;;4.80;3.30;;;;;;;10.02;70.82;100576.81;4953263;28;20216;-80
2023/10/06 01:14:21;;;;;;;5.13;2.00;;;;;;;10.00;70.89;100580.44;4953058;28;20196;-77
2023/10/06 01:16:49;;;;;;;4.18;2.90;;;;;;;9.98;70.83;100575.22;4942016;28;20200;-80
2023/10/06 01:19:17;;;;;;;4.65;2.90;;;;;;;10.00;70.83;100577.81;4951304;28;21115;-77
2023/10/06 01:21:48;;;;;;;4.70;3.00;;;;;;;10.00;70.55;100577.81;4952863;28;20667;-78
2023/10/06 01:24:28;;;;;;;2.83;2.60;;;;;;;10.00;70.40;100572.56;4955583;28;20236;-79
2023/10/06 01:27:01;;;;;;;4.68;3.47;;;;;;;9.96;70.50;100570.06;4944354;28;20249;-79
2023/10/06 01:29:30;;;;;;;3.55;2.95;;;;;;;9.93;70.48;100566.72;4955384;28;20189;-77
2023/10/06 01:31:57;;;;;;;4.65;2.92;;;;;;;9.89;70.52;100571.25;4936351;28;20227;-79
2023/10/06 01:34:24;;;;;;;6.10;2.55;;;;;;;9.86;70.62;100568.78;4952641;28;20765;-79
2023/10/06 01:36:53;;;;;;;3.42;3.00;;;;;;;9.83;70.97;100566.31;4938940;28;20446;-78
2023/10/06 01:39:28;;;;;;;4.65;2.63;;;;;;;9.80;71.00;100563.78;4960556;28;20208;-79
2023/10/06 01:41:54;;;;;;;6.25;2.95;;;;;;;9.78;71.01;100570.06;4960715;28;20185;-79
2023/10/06 01:44:19;;;;;;;3.50;2.83;;;;;;;9.73;70.81;100570.25;4945570;28;20211;-78
2023/10/06 01:46:53;;;;;;;4.60;2.97;;;;;;;9.73;70.94;100568.47;4947317;28;20219;-77
2023/10/06 01:49:21;;;;;;;3.97;3.53;;;;;;;9.71;70.67;100561.59;4947179;28;20184;-77
2023/10/06 01:51:50;;;;;;;2.85;2.22;;;;;;;9.68;70.96;100561.72;4983465;28;20220;-77
2023/10/06 01:54:17;;;;;;;4.05;3.03;;;;;;;9.65;70.76;100554.00;4949611;28;20184;-78
2023/10/06 01:56:44;;;;;;;5.53;2.85;;;;;;;9.62;70.78;100548.91;4974792;28;20199;-76
2023/10/06 01:59:10;;;;;;;4.20;2.63;;;;;;;9.60;70.79;100548.94;4948232;28;20196;-78
2023/10/06 02:01:40;;;;;;;4.72;2.92;;;;;;;9.58;70.90;100542.06;4948097;28;20224;-79
2023/10/06 02:04:10;;;;;;;6.43;3.30;;;;;;;9.53;70.87;100530.03;4958960;28;20207;-76
2023/10/06 02:06:35;;;;;;;7.20;3.00;;;;;;;9.49;70.95;100535.47;4962688;28;20258;-78
2023/10/06 02:09:17;;;;;;;6.50;3.20;;;;;;;9.45;70.98;100537.38;4963619;28;20231;-78
2023/10/06 02:11:44;;;;;;;5.60;2.78;;;;;;;9.36;71.17;100534.31;4982967;28;20204;-77
2023/10/06 02:14:11;;;;;;;4.22;2.70;;;;;;;9.33;71.29;100532.66;4949225;28;20196;-79
2023/10/06 02:16:37;;;;;;;4.25;2.60;;;;;;;9.35;71.22;100530.00;4977270;28;20212;-78
2023/10/06 02:19:08;;;;;;;2.95;1.90;;;;;;;9.33;71.40;100532.66;4946778;28;20634;-77
2023/10/06 02:21:38;;;;;;;1.52;1.42;;;;;;;9.21;71.26;100528.81;4962900;28;20218;-76
2023/10/06 02:24:05;;;;;;;1.55;1.27;;;;;;;9.06;71.40;100525.06;4963341;28;20196;-79
2023/10/06 02:26:37;;;;;;;2.60;1.50;;;;;;;8.94;71.60;100520.38;4946386;28;20247;-76
2023/10/06 02:29:22;;;;;;;1.65;1.35;;;;;;;;;;4962616;28;20204;-78
2023/10/06 02:31:47;;;;;;;2.15;1.40;;;;;;;;;;4962502;28;20263;-77
2023/10/06 02:34:15;;;;;;;1.90;1.73;;;;;;;;;;4950801;28;20201;-78
2023/10/06 02:36:41;;;;;;;1.83;1.48;;;;;;;8.69;nan;100523.13;4962785;28;20430;-77
2023/10/06 02:39:09;;;;;;;3.90;1.85;;;;;;;8.66;nan;100520.66;4963369;28;20213;-79
2023/10/06 02:41:36;;;;;;;1.90;1.48;;;;;;;8.62;nan;100513.84;4964081;28;20216;-77
2023/10/06 02:44:14;;;;;;;2.50;1.75;;;;;;;8.64;nan;100527.72;4960594;28;20525;-77
2023/10/06 02:46:44;;;;;;;3.72;1.85;;;;;;;8.68;nan;100512.75;4962769;28;20291;-76
2023/10/06 02:49:09;;;;;;;2.47;1.45;;;;;;;8.67;nan;100519.75;4959748;28;20230;-77
2023/10/06 02:51:47;;;;;;;2.03;1.80;;;;;;;8.60;nan;100506.03;4973310;28;20247;-76
2023/10/06 02:56:47;;;;;;;1.70;1.60;;;;;;;8.55;nan;100518.47;4945568;28;20290;-77
2023/10/06 02:59:23;;;;;;;2.10;1.70;;;;;;;8.58;nan;100509.63;4960107;28;20284;-78
2023/10/06 03:01:52;;;;;;;3.72;2.25;;;;;;;8.63;nan;100512.91;4959368;28;20204;-78
2023/10/06 03:04:21;;;;;;;2.20;2.00;;;;;;;8.71;nan;100518.69;4959995;28;20494;-79
2023/10/06 03:06:53;;;;;;;3.15;2.33;;;;;;;8.77;nan;100521.06;4946118;28;20205;-77
2023/10/06 03:09:37;;;;;;;3.72;1.83;;;;;;;8.81;nan;100516.56;4943155;28;20219;-77
2023/10/06 03:14:56;;;;;;;8.05;2.13;;;;;;;8.84;nan;100521.66;4958487;28;20812;-78
2023/10/06 03:17:23;;;;;;;3.95;2.58;;;;;;;8.87;nan;100513.66;4949932;28;20192;-79
2023/10/06 03:22:37;;;;;;;5.45;3.08;;;;;;;8.90;nan;100528.41;4953835;28;20275;-77
2023/10/06 03:25:14;;;;;;;2.53;2.30;;;;;;;8.88;nan;100525.84;4938559;28;20223;-78
2023/10/06 03:27:41;;;;;;;5.00;2.60;;;;;;;8.85;nan;100518.13;4978148;28;20192;-76
2023/10/06 03:30:11;;;;;;;3.85;3.13;;;;;;;8.78;nan;100514.91;4940906;28;20560;-77
2023/10/06 03:32:40;;;;;;;3.60;2.40;;;;;;;8.74;nan;100515.09;4966466;28;20207;-79
2023/10/06 03:37:53;;;;;;;4.80;3.33;;;;;;;8.72;nan;100522.16;4972087;28;20772;-77
2023/10/06 03:40:30;;;;;;;4.43;3.63;;;;;;;8.72;nan;100522.16;4970291;28;20297;-77
2023/10/06 03:42:57;;;;;;;3.70;2.83;;;;;;;8.75;nan;100530.75;4954058;28;20267;-77
2023/10/06 03:45:31;;;;;;;4.75;2.83;;;;;;;8.78;nan;100529.78;4935111;28;20218;-77
2023/10/06 03:48:11;;;;;;;3.35;2.60;;;;;;;8.78;nan;100530.63;4940058;28;20219;-77
2023/10/06 03:50:38;;;;;;;3.10;2.65;;;;;;;8.78;nan;100527.16;4953316;28;20196;-77
2023/10/06 03:53:07;;;;;;;3.47;2.90;;;;;;;8.78;nan;100524.53;4957788;28;20184;-78
2023/10/06 03:55:44;;;;;;;3.35;3.05;;;;;;;8.74;nan;100533.44;4955418;28;20212;-77
2023/10/06 03:58:12;;;;;;;3.65;3.08;;;;;;;8.73;nan;100531.75;4950627;28;20204;-77
2023/10/06 04:00:47;;;;;;;8.57;2.88;;;;;;;8.73;nan;100529.97;4958948;28;20212;-77
2023/10/06 04:03:14;;;;;;;3.78;2.83;;;;;;;8.73;nan;100526.50;4955716;28;20295;-77
2023/10/06 04:05:41;;;;;;;6.57;3.40;;;;;;;8.71;nan;100530.94;4956313;28;20184;-77
2023/10/06 04:08:15;;;;;;;3.20;2.90;;;;;;;8.66;nan;100525.88;4957968;28;20197;-77
2023/10/06 04:10:42;;;;;;;2.90;2.67;;;;;;;8.64;nan;100522.47;4951874;28;20322;-77
2023/10/06 04:13:08;;;;;;;7.63;4.07;;;;;;;8.67;nan;100522.38;4957742;28;20299;-77
2023/10/06 04:15:48;;;;;;;3.15;2.83;;;;;;;8.71;nan;100523.09;4953567;28;20205;-77
2023/10/06 04:18:18;;;;;;;4.82;4.07;;;;;;;8.74;nan;100522.97;4951910;28;20220;-78
2023/10/06 04:20:45;;;;;;;3.85;2.80;;;;;;;8.75;nan;100530.75;4952869;28;20196;-77
2023/10/06 04:23:18;;;;;;;6.32;3.53;;;;;;;8.76;nan;100529.00;4958282;28;20197;-77
2023/10/06 04:25:47;;;;;;;4.18;2.80;;;;;;;8.76;nan;100527.22;4955444;28;20686;-77
2023/10/06 04:28:14;;;;;;;4.43;3.05;;;;;;;8.77;nan;100533.31;4956582;28;20204;-78
2023/10/06 04:30:44;;;;;;;3.75;2.83;;;;;;;8.76;nan;100535.06;4955392;28;20259;-77
2023/10/06 04:33:11;;;;;;;3.92;3.30;;;;;;;8.75;nan;100530.75;4956263;28;20915;-77
2023/10/06 04:35:42;;;;;;;9.68;4.63;;;;;;;8.69;nan;100530.16;4955894;28;20228;-77
2023/10/06 04:38:10;;;;;;;7.72;3.90;;;;;;;8.61;nan;100535.69;4956269;28;20195;-77
2023/10/06 04:40:41;;;;;;;9.73;5.57;;;;;;;8.57;nan;100536.75;4953266;28;20217;-77
2023/10/06 04:43:07;;;;;;;11.13;7.70;;;;;;;8.55;nan;100528.94;4955848;28;20209;-79
2023/10/06 04:45:33;;;;;;;11.10;7.97;;;;;;;8.54;nan;100537.72;4954874;28;20848;-77
2023/10/06 04:48:00;;;;;;;12.07;7.35;;;;;;;8.53;nan;100530.78;4953138;28;20208;-78
2023/10/06 04:50:27;;;;;;;10.13;5.95;;;;;;;8.46;nan;100534.56;4951958;28;20203;-77
2023/10/06 04:52:54;;;;;;;5.30;4.70;;;;;;;8.39;nan;100530.47;4954172;28;20200;-78
2023/10/06 04:55:20;;;;;;;7.00;3.90;;;;;;;8.28;nan;100528.25;4955011;28;20232;-77
2023/10/06 04:57:45;;;;;;;4.37;3.87;;;;;;;8.22;nan;100525.88;4958769;28;20442;-78
2023/10/06 05:00:15;;;;;;;4.53;3.27;;;;;;;8.16;nan;100531.34;4957248;28;20215;-78
2023/10/06 05:02:44;;;;;;;5.47;3.58;;;;;;;8.11;nan;100520.22;4955585;28;20196;-78
2023/10/06 05:05:20;;;;;;;7.93;3.45;;;;;;;8.09;nan;100509.78;4953742;28;20258;-78
2023/10/06 05:07:50;;;;;;;4.72;3.50;;;;;;;8.08;nan;100515.94;4953843;28;20569;-78
2023/10/06 05:10:21;;;;;;;8.82;4.38;;;;;;;8.11;nan;100517.59;4955533;28;20774;-78
2023/10/06 05:12:47;;;;;;;7.57;3.35;;;;;;;8.14;nan;100517.47;4953161;28;20211;-78
2023/10/06 05:15:30;;;;;;;4.45;3.20;;;;;;;8.12;nan;100522.75;4955730;28;20279;-78
2023/10/06 05:18:00;;;;;;;9.93;4.03;;;;;;;8.10;nan;100522.00;4953470;28;20861;-78
2023/10/06 05:20:30;;;;;;;3.25;2.35;;;;;;;8.10;nan;100516.75;4957212;28;20308;-78
2023/10/06 05:23:06;;;;;;;5.10;3.45;;;;;;;8.13;nan;100516.63;4955987;28;20197;-78
2023/10/06 05:25:33;;;;;;;6.28;3.50;;;;;;;8.16;nan;100518.28;4959912;28;20299;-78
2023/10/06 05:27:59;;;;;;;5.63;3.83;;;;;;;8.18;nan;100525.16;4960201;28;20204;-78
2023/10/06 05:30:26;;;;;;;5.03;3.45;;;;;;;8.23;nan;100532.81;4961316;28;20735;-78
2023/10/06 05:32:51;;;;;;;3.70;2.88;;;;;;;8.27;nan;100534.41;4963242;28;20254;-78
2023/10/06 05:35:19;;;;;;;4.07;3.03;;;;;;;8.31;nan;100535.97;4963654;28;20224;-78
2023/10/06 05:37:44;;;;;;;6.45;3.50;;;;;;;8.38;nan;100531.38;4960402;28;20434;-79
2023/10/06 05:40:16;;;;;;;6.23;3.00;;;;;;;8.39;nan;100526.09;4959035;28;20566;-79
2023/10/06 05:42:48;;;;;;;4.57;3.10;;;;;;;8.42;nan;100535.59;4954324;28;20209;-78
2023/10/06 05:45:18;;;;;;;2.58;2.35;;;;;;;8.45;nan;100538.06;4954979;28;20208;-78
2023/10/06 05:47:48;;;;;;;4.65;3.00;;;;;;;8.49;nan;100542.28;4957675;28;20258;-79
2023/10/06 05:50:28;;;;;;;3.05;2.75;;;;;;;8.53;nan;100543.00;4953323;28;20502;-79
2023/10/06 05:52:58;;;;;;;5.55;3.90;;;;;;;8.55;nan;100551.66;4951684;28;20203;-79
2023/10/06 05:55:29;;;;;;;4.78;3.15;;;;;;;8.58;nan;100546.28;4951583;28;20208;-79
2023/10/06 05:57:55;;;;;;;5.68;2.63;;;;;;;8.59;nan;100551.50;4950040;28;20287;-79
2023/10/06 06:00:29;;;;;;;4.53;3.30;;;;;;;8.58;nan;100560.25;4947462;28;20552;-79
2023/10/06 06:02:58;;;;;;;3.67;3.20;;;;;;;8.56;nan;100561.22;4951724;28;20197;-79
2023/10/06 06:05:25;;;;;;;4.00;2.30;;;;;;;8.56;nan;100567.31;4944522;28;20216;-78
2023/10/06 06:07:51;;;;;;;5.78;3.72;;;;;;;8.58;nan;100562.84;4951673;28;20267;-78
2023/10/06 06:10:18;;;;;;;6.60;4.45;;;;;;;8.62;nan;100559.22;4951532;28;20223;-78
2023/10/06 06:12:44;;;;;;;5.28;3.42;;;;;;;8.69;nan;100565.03;4953319;28;20251;-79
2023/10/06 06:15:12;;;;;;;3.43;2.83;;;;;;;8.75;nan;100577.03;4950897;28;20204;-78
2023/10/06 06:17:38;;;;;;;3.40;2.97;;;;;;;8.80;nan;100581.19;4949109;28;20196;-76
2023/10/06 06:20:07;;;;;;;8.82;2.97;;;;;;;8.81;nan;100589.91;4947507;28;20216;-77
2023/10/06 06:22:40;;;;;;;3.80;2.60;;;;;;;8.82;nan;100584.59;4951308;28;20200;-76
2023/10/06 06:25:06;;;;;;;6.32;2.85;;;;;;;8.82;nan;100581.13;4950377;28;20211;-77
2023/10/06 06:27:32;;;;;;;7.85;3.25;;;;;;;8.88;nan;100574.78;4966989;28;20235;-77
2023/10/06 06:29:58;;;;;;;4.75;2.85;;;;;;;8.96;nan;100576.16;4937544;28;20185;-77
2023/10/06 06:32:25;;;;;;;5.43;3.13;;;;;;;9.05;nan;100580.19;4953984;28;20818;-78
2023/10/06 06:34:51;;;;;;;8.52;3.00;;;;;;;9.15;nan;100589.34;4953279;28;20204;-77
2023/10/06 06:37:16;;;;;;;4.67;2.97;;;;;;;9.24;nan;100583.72;4953905;28;20199;-77
2023/10/06 06:39:44;;;;;;;3.60;2.70;;;;;;;9.35;nan;100575.41;4954609;28;20568;-78
2023/10/06 06:42:13;;;;;;;5.82;2.92;;;;;;;9.46;nan;100567.09;4953564;28;20239;-78
2023/10/06 06:44:39;;;;;;;5.68;3.35;;;;;;;9.51;nan;100571.19;4940412;28;20844;-78
2023/10/06 06:47:05;;;;;;;4.63;3.87;;;;;;;9.58;nan;100589.28;4953257;28;20283;-78
2023/10/06 06:49:31;;;;;;;4.80;3.10;;;;;;;9.68;nan;100585.34;4949681;28;20196;-78
2023/10/06 06:51:58;;;;;;;7.03;3.30;;;;;;;9.79;nan;100579.63;4950742;28;20466;-77
2023/10/06 06:54:26;;;;;;;5.75;3.70;;;;;;;9.89;nan;100573.88;4949324;28;20204;-77
2023/10/06 06:56:53;;;;;;;5.88;3.67;;;;;;;9.99;nan;100571.72;4952577;28;20287;-78
2023/10/06 06:59:19;;;;;;;6.95;3.83;;;;;;;10.10;nan;100576.44;4950482;28;20204;-78
2023/10/06 07:01:44;;;;;;;5.73;3.50;;;;;;;10.20;nan;100569.84;4950897;28;20213;-78
2023/10/06 07:04:12;;;;;;;15.23;4.10;;;;;;;10.30;nan;100568.53;4952442;28;20200;-79
2023/10/06 07:06:37;;;;;;;8.48;4.80;;;;;;;10.44;nan;100569.66;4954490;28;20200;-78
2023/10/06 07:09:12;;;;;;;4.67;3.97;;;;;;;10.55;nan;100568.19;4947628;28;20254;-78
2023/10/06 07:11:38;;;;;;;5.07;3.78;;;;;;;10.68;nan;100572.88;4954854;28;20188;-78
2023/10/06 07:14:04;;;;;;;9.98;4.60;;;;;;;10.77;nan;100564.53;4952784;28;20197;-78
2023/10/06 07:16:31;;;;;;;7.47;3.97;;;;;;;10.84;nan;100558.91;4954779;28;20235;-77
2023/10/06 07:18:56;;;;;;;9.02;4.13;;;;;;;10.89;nan;100568.34;4953973;28;20312;-78
2023/10/06 07:21:22;;;;;;;6.13;3.80;;;;;;;10.96;nan;100573.19;4948853;28;20208;-78
2023/10/06 07:23:51;;;;;;;4.53;3.53;;;;;;;11.05;nan;100577.19;4951695;28;20701;-78
2023/10/06 07:26:17;;;;;;;7.85;4.60;;;;;;;11.15;nan;100583.69;4953846;28;20482;-78
2023/10/06 07:28:51;;;;;;;3.57;3.10;;;;;;;11.25;nan;100573.53;4951079;28;20302;-78
2023/10/06 07:31:19;;;;;;;6.88;4.47;;;;;;;11.36;nan;100576.44;4948911;28;20240;-78
2023/10/06 07:33:47;;;;;;;6.75;4.32;;;;;;;11.46;nan;100575.06;4949518;28;20192;-78
2023/10/06 07:36:14;;;;;;;10.73;4.45;;;;;;;11.55;nan;100584.25;4949132;28;20607;-78
2023/10/06 07:38:42;;;;;;;6.72;4.85;;;;;;;11.65;nan;100567.03;4986802;23;20220;-76
2023/10/06 07:41:19;;;;;;;6.32;4.97;;;;;;;11.77;nan;100570.81;4935167;28;20203;-76
2023/10/06 07:43:46;;;;;;;4.50;3.97;;;;;;;11.88;nan;100565.00;4982815;28;20561;-77
2023/10/06 07:46:13;;;;;;;8.60;5.90;;;;;;;11.99;nan;100560.03;4978858;28;20206;-77
2023/10/06 07:48:39;;;;;;;10.90;6.47;;;;;;;12.10;nan;100565.56;4972960;28;20218;-76
2023/10/06 07:51:08;;;;;;;9.50;6.60;;;;;;;12.23;nan;100562.22;4977605;28;20681;-76
2023/10/06 07:53:35;;;;;;;15.18;6.40;;;;;;;12.32;nan;100569.66;4982701;28;20290;-77
2023/10/06 07:56:06;;;;;;;6.57;5.57;;;;;;;12.43;nan;100561.13;4977419;28;20192;-76
2023/10/06 08:02:12;;;;;;;8.23;5.68;;;;;;;13.73;nan;100554.34;4744349;26;20261;-79
2023/10/06 08:04:38;;;;;;;7.82;6.32;;;;;;;14.79;nan;100550.25;4916961;28;20751;-79
2023/10/06 08:07:03;;;;;;;7.37;5.63;;;;;;;15.68;nan;100546.88;4915693;28;20201;-80
2023/10/06 08:09:32;;;;;;;8.80;6.40;;;;;;;16.14;nan;100542.75;4896883;29;20234;-79
2023/10/06 08:11:58;;;;;;;6.80;5.10;;;;;;;16.45;nan;100538.75;4912901;23;20190;-78
2023/10/06 08:14:24;;;;;;;10.77;7.23;;;;;;;16.73;nan;100528.75;4904401;29;20226;-76
2023/10/06 08:16:51;;;;;;;8.80;5.40;;;;;;;17.01;nan;100522.22;4912604;29;20201;-78
2023/10/06 08:19:16;;;;;;;9.80;5.75;;;;;;;17.33;nan;100529.53;4913600;29;20453;-77
2023/10/06 08:21:42;;;;;;;8.37;6.30;;;;;;;17.63;nan;100531.59;4915566;29;20209;-77
2023/10/06 08:24:08;;;;;;;8.00;6.27;;;;;;;17.84;nan;100532.59;4912612;29;20237;-78
2023/10/06 08:26:36;;;;;;;8.95;6.10;;;;;;;18.07;nan;100536.09;4916702;29;20198;-77
2023/10/06 08:29:04;;;;;;;12.70;6.00;;;;;;;18.15;nan;100532.84;4921916;29;20571;-77
2023/10/06 08:31:30;;;;;;;8.48;5.78;;;;;;;18.14;nan;100547.91;4922335;29;20586;-77
2023/10/06 08:33:58;;;;;;;8.90;6.40;;;;;;;18.07;nan;100548.56;4922040;29;20263;-77
2023/10/06 08:36:24;;;;;;;8.48;5.90;;;;;;;18.07;nan;100540.59;4921506;29;20515;-79
2023/10/06 08:38:51;;;;;;;9.50;5.60;;;;;;;18.14;nan;100542.59;4920583;29;20753;-77
2023/10/06 08:41:24;;;;;;;6.85;5.20;;;;;;;18.58;nan;100547.97;4918190;29;20214;-77
2023/10/06 08:43:51;;;;;;;7.63;6.55;;;;;;;19.19;nan;100539.34;4917738;29;20260;-77
2023/10/06 08:46:19;;;;;;;9.10;5.05;;;;;;;19.73;nan;100537.41;4917847;29;20628;-77
2023/10/06 08:48:46;;;;;;;12.93;5.30;;;;;;;20.15;nan;100538.13;4920656;29;20580;-80
2023/10/06 08:51:14;;;;;;;9.43;5.23;;;;;;;20.50;nan;100534.13;4921649;29;20464;-78
2023/10/06 08:53:44;;;;;;;6.20;4.70;;;;;;;20.68;nan;100526.28;4920248;29;20468;-78
2023/10/06 08:56:14;;;;;;;9.07;4.70;;;;;;;20.91;nan;100530.34;4918737;29;20462;-79
2023/10/06 08:58:41;;;;;;;7.37;4.97;;;;;;;21.16;nan;100525.41;4909187;29;20469;-80
2023/10/06 09:01:09;;;;;;;5.47;4.23;;;;;;;21.37;nan;100528.75;4909360;29;20992;-80
2023/10/06 09:03:38;;;;;;;6.03;3.93;;;;;;;21.53;nan;100536.16;4914050;29;20534;-80
2023/10/06 09:06:06;;;;;;;7.60;5.10;;;;;;;21.65;nan;100540.34;4909405;29;21054;-79
2023/10/06 09:08:42;;;;;;;7.93;3.10;;;;;;;21.57;nan;100537.53;4908834;29;20466;-79
2023/10/06 09:11:08;;;;;;;5.83;3.87;;;;;;;21.45;nan;100536.06;4907071;29;21205;-80
2023/10/06 09:13:36;;;;;;;6.50;3.77;;;;;;;21.28;nan;100526.94;4915475;29;20912;-79
2023/10/06 09:16:08;;;;;;;5.90;4.20;;;;;;;21.16;nan;100525.41;4912403;29;20476;-79
2023/10/06 09:18:35;;;;;;;6.90;4.57;;;;;;;21.04;nan;100532.75;4915015;29;21220;-79
2023/10/06 09:21:10;;;;;;;7.10;4.03;;;;;;;20.88;nan;100535.16;4919025;29;20469;-79
2023/10/06 09:23:39;;;;;;;6.70;3.43;;;;;;;20.57;nan;100537.09;4922912;29;20504;-80
2023/10/06 09:26:07;;;;;;;8.33;6.33;;;;;;;20.14;nan;100536.44;4921675;29;20472;-80
2023/10/06 09:28:32;;;;;;;6.60;4.60;;;;;;;19.72;nan;100536.59;4922353;29;20461;-80
2023/10/06 09:31:00;;;;;;;11.10;4.80;;;;;;;19.49;nan;100532.38;4917217;29;20460;-80
2023/10/06 09:33:37;;;;;;;7.00;4.10;;;;;;;19.37;nan;100528.94;4918087;29;20212;-80
2023/10/06 09:36:06;;;;;;;3.97;2.77;;;;;;;19.27;nan;100528.03;4907320;29;20834;-80
2023/10/06 09:38:32;;;;;;;5.70;3.93;;;;;;;19.06;nan;100528.88;4908507;29;20457;-79
2023/10/06 09:40:58;;;;;;;4.53;3.10;;;;;;;18.88;nan;100536.63;4906817;29;20465;-79
2023/10/06 09:43:25;;;;;;;5.07;3.03;;;;;;;18.70;nan;100530.13;4903053;29;20755;-79
2023/10/06 09:45:55;;;;;;;3.53;2.83;;;;;;;18.67;nan;100517.06;4906239;29;20627;-79
2023/10/06 09:48:25;;;;;;;4.83;3.03;;;;;;;18.72;nan;100520.19;4905796;29;20924;-78
2023/10/06 09:50:54;;;;;;;8.33;4.00;;;;;;;18.80;nan;100507.13;4906229;29;20465;-79
2023/10/06 09:53:20;;;;;;;8.53;3.30;;;;;;;18.87;nan;100508.28;4906812;29;20767;-79
2023/10/06 09:55:49;;;;;;;5.90;5.17;;;;;;;18.86;nan;100505.78;4905661;29;20477;-78
2023/10/06 09:58:17;;;;;;;5.40;3.83;;;;;;;18.76;nan;100497.69;4904486;29;20439;-79
2023/10/06 10:00:43;;;;;;;5.97;4.00;;;;;;;18.80;nan;100493.81;4904603;29;20473;-79
2023/10/06 10:03:12;;;;;;;6.63;3.90;;;;;;;18.85;nan;100496.94;4904694;29;20478;-79
2023/10/06 10:05:38;;;;;;;5.93;4.73;;;;;;;18.89;nan;100495.69;4905956;29;20500;-79
2023/10/06 10:08:06;;;;;;;4.57;3.20;;;;;;;18.92;nan;100497.25;4908763;29;20988;-79
2023/10/06 10:10:34;;;;;;;7.03;4.13;;;;;;;18.96;nan;100501.38;4909099;29;21912;-79
2023/10/06 10:13:34;;;;;;;8.00;4.23;;;;;;;19.01;nan;100492.00;4910180;29;21002;-79
2023/10/06 10:16:11;;;;;;;4.87;3.03;;;;;;;19.01;nan;100494.69;4906513;29;20565;-80
2023/10/06 10:18:48;;;;;;;4.23;3.53;;;;;;;18.97;nan;100495.06;4906086;29;20450;-79
2023/10/06 10:21:15;;;;;;;5.00;3.27;;;;;;;19.05;nan;100492.59;4907303;29;20447;-79
2023/10/06 10:23:43;;;;;;;7.13;4.10;;;;;;;19.17;nan;100478.22;4905228;29;20767;-79
2023/10/06 10:26:22;;;;;;;4.33;3.37;;;;;;;19.20;nan;100485.97;4905183;29;20843;-79
2023/10/06 10:29:05;;;;;;;4.90;3.73;;;;;;;19.10;nan;100489.53;4905668;29;20817;-79
2023/10/06 10:31:37;;;;;;;4.00;3.20;;;;;;;19.02;nan;100485.69;4908106;29;20524;-79
2023/10/06 10:34:02;;;;;;;4.77;3.27;;;;;;;19.04;nan;100488.25;4911367;29;20529;-79
2023/10/06 10:36:28;;;;;;;6.65;3.80;;;;;;;19.06;nan;100475.63;4908533;29;20436;-79
2023/10/06 10:39:09;;;;;;;6.40;3.30;;;;;;;19.10;nan;100478.88;4905916;29;20198;-79
2023/10/06 10:41:38;;;;;;;7.30;4.20;;;;;;;19.21;nan;100474.31;4905966;28;20504;-79
2023/10/06 10:44:06;;;;;;;6.50;4.57;;;;;;;19.29;nan;100467.50;4905609;29;20765;-79
2023/10/06 10:46:46;;;;;;;5.60;3.70;;;;;;;19.32;nan;100460.06;4907212;29;20961;-79
2023/10/06 10:49:13;;;;;;;6.93;3.50;;;;;;;19.36;nan;100458.84;4908071;29;20450;-79
2023/10/06 10:52:02;;;;;;;8.00;3.27;;;;;;;19.40;nan;100457.56;4907451;29;20451;-79
2023/10/06 10:54:33;;;;;;;5.83;3.60;;;;;;;19.40;nan;100452.25;4905503;29;20783;-79
2023/10/06 10:57:09;;;;;;;6.10;4.13;;;;;;;19.43;nan;100454.66;4909431;29;20481;-79
2023/10/06 11:00:00;;;;;;;8.10;4.90;;;;;;;19.43;nan;100451.97;4907643;29;20468;-79
2023/10/06 11:02:44;;;;;;;6.60;3.80;;;;;;;19.38;nan;100448.03;4909266;29;21074;-79
2023/10/06 11:05:10;;;;;;;4.10;3.70;;;;;;;19.39;nan;100449.75;4906405;29;20826;-79
2023/10/06 11:07:35;;;;;;;5.60;3.90;;;;;;;19.42;nan;100439.66;4907139;29;21750;-79
2023/10/06 11:10:02;;;;;;;4.53;3.63;;;;;;;19.51;nan;100438.00;4904507;29;20457;-79
2023/10/06 11:12:30;;;;;;;3.87;2.80;;;;;;;19.54;nan;100434.22;4907284;29;20630;-79
2023/10/06 11:15:13;;;;;;;5.60;3.20;;;;;;;19.52;nan;100423.69;4907030;29;21068;-79
2023/10/06 11:17:41;;;;;;;7.37;4.00;;;;;;;19.46;nan;100426.88;4906700;29;20453;-80
2023/10/06 11:20:13;;;;;;;4.60;3.13;;;;;;;19.45;nan;100422.56;4906429;29;20526;-79
2023/10/06 11:22:39;;;;;;;4.77;3.97;;;;;;;19.51;nan;100416.66;4910289;29;20537;-79
2023/10/06 11:25:08;;;;;;;3.97;3.10;;;;;;;19.60;nan;100415.84;4906438;29;20556;-79
2023/10/06 11:27:33;;;;;;;4.50;3.20;;;;;;;19.70;nan;100402.59;4906125;29;20522;-79
2023/10/06 11:30:08;;;;;;;4.33;2.80;;;;;;;19.79;nan;100401.75;4906198;29;21073;-79
2023/10/06 11:32:33;;;;;;;7.40;3.23;;;;;;;19.85;nan;100401.22;4907502;29;20214;-79
2023/10/06 11:34:58;;;;;;;3.90;2.90;;;;;;;19.92;nan;100404.16;4905191;29;20462;-79
2023/10/06 11:37:25;;;;;;;3.53;3.23;;;;;;;19.98;nan;100402.75;4901873;29;20988;-79
2023/10/06 11:39:52;;;;;;;4.47;2.83;;;;;;;20.00;nan;100400.81;4907153;29;20363;-79
2023/10/06 11:42:27;;;;;;;6.20;3.13;;;;;;;19.99;nan;100394.63;4902100;29;20474;-79
2023/10/06 11:44:55;;;;;;;2.47;2.23;;;;;;;20.00;nan;100390.97;4905778;29;20509;-79
2023/10/06 11:47:35;;;;;;;4.23;2.93;;;;;;;20.03;nan;100398.69;4907573;29;20782;-79
2023/10/06 11:50:03;;;;;;;4.37;3.17;;;;;;;20.08;nan;100387.63;4906594;29;20867;-80
2023/10/06 11:52:29;;;;;;;6.27;3.50;;;;;;;20.07;nan;100384.13;4906162;29;20482;-79
2023/10/06 11:54:57;;;;;;;6.23;3.63;;;;;;;20.04;nan;100386.22;4907084;29;20617;-80
2023/10/06 11:57:44;;;;;;;4.10;3.33;;;;;;;20.06;nan;100387.78;4905252;29;20849;-80
2023/10/06 12:00:12;;;;;;;6.43;3.30;;;;;;;20.07;nan;100383.28;4905726;29;20621;-79
2023/10/06 12:02:51;;;;;;;3.90;2.70;;;;;;;20.16;nan;100385.09;4910873;29;20509;-79
2023/10/06 12:05:24;;;;;;;5.43;3.07;;;;;;;20.23;nan;100386.22;4910608;29;20521;-79
2023/10/06 12:07:49;;;;;;;6.57;4.53;;;;;;;20.29;nan;100377.66;4909300;29;21123;-80
2023/10/06 12:10:20;;;;;;;4.23;3.13;;;;;;;20.38;nan;100375.13;4906355;29;20500;-79
2023/10/06 12:12:52;;;;;;;6.30;3.07;;;;;;;20.47;nan;100375.13;4909316;29;20228;-80
2023/10/06 12:15:18;;;;;;;4.70;3.73;;;;;;;20.49;nan;100374.97;4907597;29;20737;-80